TimeCST,TemperatureF,Dew PointF,Humidity,Sea Level PressureIn,VisibilityMPH,Wind Direction,Wind SpeedMPH,Gust SpeedMPH,PrecipitationIn,Events,Conditions,WindDirDegrees,DateUTC
12:54 AM,48.0,43.0,83,29.57,8.0,South,11.5,-,N/A,,Clear,180,2013-11-16 06:54:00
1:54 AM,48.9,44.1,83,29.52,8.0,SSE,12.7,-,N/A,,Clear,160,2013-11-16 07:54:00
2:54 AM,48.0,44.1,86,29.50,8.0,SSE,10.4,-,N/A,,Clear,160,2013-11-16 08:54:00
3:54 AM,46.9,44.1,90,29.46,8.0,SSE,11.5,-,N/A,,Clear,160,2013-11-16 09:54:00
4:54 AM,46.9,44.1,90,29.43,8.0,SSE,11.5,-,N/A,,Clear,160,2013-11-16 10:54:00
5:54 AM,48.9,45.0,86,29.40,8.0,South,9.2,-,N/A,,Clear,170,2013-11-16 11:54:00
6:54 AM,50.0,46.9,89,29.36,8.0,South,17.3,24.2,N/A,,Clear,170,2013-11-16 12:54:00
7:54 AM,53.1,48.9,86,29.35,8.0,South,15.0,-,N/A,,Clear,190,2013-11-16 13:54:00
8:54 AM,55.9,48.9,77,29.36,10.0,SSW,13.8,-,N/A,,Clear,200,2013-11-16 14:54:00
9:54 AM,57.9,46.9,67,29.34,10.0,SW,20.7,32.2,N/A,,Partly Cloudy,220,2013-11-16 15:54:00
10:54 AM,57.0,41.0,55,29.36,10.0,SW,21.9,-,N/A,,Clear,230,2013-11-16 16:54:00
11:54 AM,57.9,37.9,47,29.35,10.0,WSW,16.1,26.5,N/A,,Clear,250,2013-11-16 17:54:00
12:54 PM,62.1,36.0,38,29.34,10.0,SW,23.0,-,N/A,,Clear,230,2013-11-16 18:54:00
1:54 PM,63.0,34.0,34,29.36,10.0,WSW,16.1,-,N/A,,Clear,250,2013-11-16 19:54:00
2:54 PM,64.0,32.0,30,29.36,10.0,WSW,13.8,-,N/A,,Clear,250,2013-11-16 20:54:00
3:54 PM,64.0,30.0,28,29.37,10.0,SW,11.5,-,N/A,,Clear,220,2013-11-16 21:54:00
4:54 PM,59.0,28.9,32,29.39,10.0,SW,8.1,-,N/A,,Clear,220,2013-11-16 22:54:00
5:54 PM,50.0,26.1,39,29.42,10.0,South,3.5,-,N/A,,Clear,190,2013-11-16 23:54:00
6:54 PM,51.1,26.1,38,29.42,10.0,Calm,Calm,-,N/A,,Clear,0,2013-11-17 00:54:00
7:54 PM,41.0,28.0,60,29.41,10.0,North,8.1,-,N/A,,Clear,360,2013-11-17 01:54:00
8:54 PM,39.0,27.0,62,29.42,10.0,Calm,Calm,-,N/A,,Clear,0,2013-11-17 02:54:00
9:54 PM,39.0,28.0,65,29.41,10.0,Calm,Calm,-,N/A,,Clear,0,2013-11-17 03:54:00
10:54 PM,33.1,27.0,78,29.41,10.0,North,6.9,-,N/A,,Clear,360,2013-11-17 04:54:00
11:54 PM,37.9,28.9,70,29.38,10.0,Calm,Calm,-,N/A,,Clear,0,2013-11-17 05:54:00